Time;durP1;ratioP1;P1;durP2;ratioP2;P2;SDS_P1;SDS_P2;PMS_P1;PMS_P2;Temp;Humidity;BMP_temperature;BMP_pressure;BME280_temperature;BME280_humidity;BME280_pressure;Samples;Min_cycle;Max_cycle;Signal;HPM_P1;HPM_P2
2022/11/03 00:02:03;;;;;;;6.65;0.88;;;;;;;8.35;46.61;101397.31;4993270;28;20065;-78
2022/11/03 00:04:28;;;;;;;3.97;0.60;;;;;;;8.24;47.08;101401.91;5006077;28;20034;-78
2022/11/03 00:06:55;;;;;;;9.82;0.90;;;;;;;8.27;46.74;101394.00;5005650;28;20338;-78
2022/11/03 00:09:22;;;;;;;11.18;0.80;;;;;;;8.24;46.83;101391.47;5006358;28;20049;-78
2022/11/03 00:11:59;;;;;;;6.78;0.85;;;;;;;8.34;46.84;101391.25;4987178;28;20049;-76
2022/11/03 00:14:33;;;;;;;5.90;1.38;;;;;;;8.33;46.82;101383.47;5017234;28;20124;-77
2022/11/03 00:17:02;;;;;;;4.68;0.85;;;;;;;8.28;46.82;101377.50;5012798;28;20458;-78
2022/11/03 00:19:28;;;;;;;8.93;0.52;;;;;;;8.31;46.92;101367.00;5011047;28;20128;-73
2022/11/03 00:21:53;;;;;;;9.98;1.52;;;;;;;8.43;46.68;101365.91;5011397;28;20112;-73
2022/11/03 00:24:19;;;;;;;8.05;0.88;;;;;;;8.02;47.40;101345.06;5008100;28;20092;-75
2022/11/03 00:26:48;;;;;;;10.93;0.65;;;;;;;8.31;47.01;101352.22;5017209;28;20324;-81
2022/11/03 00:29:41;;;;;;;2.42;0.50;;;;;;;8.38;46.72;101354.69;4998145;28;20069;-79
2022/11/03 00:32:24;;;;;;;19.73;1.13;;;;;;;8.26;46.82;101342.81;4996704;28;20034;-78
2022/11/03 00:34:50;;;;;;;11.32;0.70;;;;;;;8.44;46.58;101345.00;5008198;28;20099;-75
2022/11/03 00:37:16;;;;;;;6.55;0.70;;;;;;;8.40;46.27;101347.72;4993581;28;20045;-76
2022/11/03 00:39:41;;;;;;;2.22;0.75;;;;;;;8.31;47.03;101356.59;5006775;28;20024;-74
2022/11/03 00:42:10;;;;;;;2.92;0.63;;;;;;;8.27;47.13;101361.03;4994604;28;20030;-75
2022/11/03 00:44:36;;;;;;;9.65;1.00;;;;;;;8.23;47.20;101363.75;5009813;28;20109;-76
2022/11/03 00:47:25;;;;;;;6.50;0.65;;;;;;;8.17;47.02;101358.66;4996988;28;20030;-75
2022/11/03 00:49:50;;;;;;;6.78;0.85;;;;;;;8.42;46.53;101344.19;5015327;28;20030;-78
2022/11/03 00:52:16;;;;;;;7.00;0.93;;;;;;;8.38;46.65;101346.88;5009145;28;20033;-78
2022/11/03 00:54:41;;;;;;;15.05;1.38;;;;;;;8.33;46.86;101344.41;5009450;28;20022;-75
2022/11/03 00:57:07;;;;;;;7.60;0.70;;;;;;;8.26;47.06;101346.28;5008939;28;20032;-76
2022/11/03 00:59:36;;;;;;;12.65;1.92;;;;;;;8.40;46.53;101345.09;4977322;28;20026;-78
2022/11/03 01:02:01;;;;;;;4.78;0.75;;;;;;;8.29;47.17;101346.22;4994379;28;20147;-76
2022/11/03 01:07:14;;;;;;;4.38;0.70;;;;;;;8.27;46.96;101344.53;5009880;28;20452;-72
2022/11/03 01:09:42;;;;;;;9.27;1.08;;;;;;;8.39;46.81;101330.38;5010404;28;20063;-71
2022/11/03 01:12:09;;;;;;;6.57;0.77;;;;;;;8.31;46.96;101307.09;5009998;28;20075;-73
2022/11/03 01:14:49;;;;;;;8.45;0.93;;;;;;;8.33;46.85;101313.13;5009291;28;20065;-73
2022/11/03 01:17:20;;;;;;;9.27;1.45;;;;;;;7.86;47.93;101317.66;4990947;28;20038;-73
2022/11/03 01:19:51;;;;;;;4.70;0.60;;;;;;;8.06;47.33;101312.03;5009872;28;20034;-73
2022/11/03 01:22:18;;;;;;;3.30;0.45;;;;;;;8.05;47.58;101298.16;4994741;28;20074;-72
2022/11/03 01:24:44;;;;;;;4.43;0.50;;;;;;;8.07;47.16;101303.31;5006476;28;20034;-74
2022/11/03 01:27:13;;;;;;;8.43;0.77;;;;;;;8.11;47.44;101291.94;4975270;28;20029;-73
2022/11/03 01:29:40;;;;;;;8.32;0.95;;;;;;;8.10;47.28;101296.31;5007707;28;20029;-75
2022/11/03 01:32:07;;;;;;;10.15;0.55;;;;;;;8.13;47.16;101287.56;4977814;28;20064;-76
2022/11/03 01:34:32;;;;;;;7.20;0.93;;;;;;;7.98;47.57;101283.59;5009187;28;20018;-76
2022/11/03 01:36:58;;;;;;;4.88;0.75;;;;;;;7.99;47.55;101277.47;4998840;28;20049;-76
2022/11/03 01:39:26;;;;;;;7.93;0.75;;;;;;;7.88;47.66;101284.66;4992401;28;20061;-76
2022/11/03 01:41:52;;;;;;;3.25;0.68;;;;;;;8.00;47.52;101273.97;4993716;28;20038;-75
2022/11/03 01:44:20;;;;;;;4.82;0.80;;;;;;;7.94;47.49;101276.72;4990242;28;20068;-76
2022/11/03 01:47:06;;;;;;;5.43;1.00;;;;;;;8.03;47.52;101268.72;4992575;28;20116;-76
2022/11/03 01:49:37;;;;;;;8.32;1.27;;;;;;;7.87;47.79;101272.53;4990687;28;20049;-76
2022/11/03 01:52:35;;;;;;;5.20;0.57;;;;;;;7.66;48.32;101261.69;4994581;28;20497;-76
2022/11/03 01:55:06;;;;;;;6.43;1.52;;;;;;;7.67;48.48;101271.25;5010503;28;20132;-76
2022/11/03 01:58:07;;;;;;;10.80;1.60;;;;;;;7.63;48.80;101255.72;4990548;28;20037;-76
2022/11/03 02:00:38;;;;;;;10.70;1.20;;;;;;;7.78;48.29;101242.38;4995292;28;20076;-76
2022/11/03 02:03:08;;;;;;;10.35;0.75;;;;;;;7.88;47.96;101253.44;4995058;28;20041;-76
2022/11/03 02:05:38;;;;;;;7.70;0.88;;;;;;;7.65;48.60;101246.16;4994073;28;20052;-74
2022/11/03 02:08:14;;;;;;;10.23;1.73;;;;;;;7.73;48.48;101236.41;5003426;28;20048;-72
2022/11/03 02:10:40;;;;;;;6.15;0.60;;;;;;;7.89;48.28;101236.91;5013998;28;20041;-73
2022/11/03 02:13:16;;;;;;;7.35;0.45;;;;;;;7.49;49.30;101238.63;5005421;28;20176;-70
2022/11/03 02:15:42;;;;;;;8.48;1.02;;;;;;;7.60;48.87;101233.25;5008982;28;20152;-71
2022/11/03 02:18:09;;;;;;;11.52;0.93;;;;;;;7.61;48.91;101245.34;5008445;28;20042;-70
2022/11/03 02:20:36;;;;;;;7.20;0.85;;;;;;;7.78;48.26;101233.69;4992133;28;20026;-76
2022/11/03 02:23:07;;;;;;;4.18;0.45;;;;;;;7.79;48.59;101219.81;4997925;28;20060;-76
2022/11/03 02:25:45;;;;;;;6.70;0.82;;;;;;;7.70;49.01;101228.69;5014257;28;20045;-76
2022/11/03 02:28:26;;;;;;;7.72;0.60;;;;;;;7.73;48.89;101234.69;5007345;28;20057;-77
2022/11/03 02:31:09;;;;;;;10.35;0.85;;;;;;;7.79;48.72;101218.06;5007448;28;20026;-74
2022/11/03 02:33:47;;;;;;;2.80;0.80;;;;;;;7.79;48.79;101228.47;5009193;28;20064;-74
2022/11/03 02:36:24;;;;;;;10.07;0.70;;;;;;;7.69;48.99;101217.44;4991560;28;20177;-74
2022/11/03 02:39:02;;;;;;;6.28;1.58;;;;;;;7.67;49.16;101208.78;5005419;28;20101;-75
2022/11/03 02:41:32;;;;;;;3.85;0.82;;;;;;;7.85;48.45;101206.66;5006704;28;20037;-75
2022/11/03 02:44:00;;;;;;;7.57;0.88;;;;;;;8.05;48.08;101194.03;5006879;28;20133;-75
2022/11/03 02:46:27;;;;;;;9.05;0.63;;;;;;;7.90;48.61;101190.03;5008680;28;20286;-76
2022/11/03 02:48:57;;;;;;;2.58;0.50;;;;;;;7.96;48.31;101186.44;5006080;28;20056;-75
2022/11/03 02:51:24;;;;;;;7.75;1.80;;;;;;;7.92;48.85;101190.00;5007311;28;20061;-74
2022/11/03 02:54:06;;;;;;;3.50;0.63;;;;;;;7.87;48.85;101179.72;5004426;28;20042;-72
2022/11/03 02:56:37;;;;;;;1.70;0.35;;;;;;;7.81;48.88;101179.00;5006799;28;20057;-73
2022/11/03 02:59:16;;;;;;;8.05;0.50;;;;;;;7.71;49.32;101183.53;5010972;28;20091;-72
2022/11/03 03:01:49;;;;;;;8.10;1.20;;;;;;;7.97;48.40;101175.13;5006244;28;20038;-75
2022/11/03 03:04:38;;;;;;;5.97;1.25;;;;;;;7.68;49.60;101179.28;4989867;28;20045;-76
2022/11/03 03:07:09;;;;;;;8.25;0.47;;;;;;;7.47;49.85;101171.94;4999200;28;20033;-77
2022/11/03 03:09:47;;;;;;;11.48;0.82;;;;;;;7.87;48.83;101173.63;5024599;28;20030;-82
2022/11/03 03:12:17;;;;;;;6.07;0.70;;;;;;;7.93;48.75;101183.91;4984086;28;20037;-78
2022/11/03 03:14:52;;;;;;;7.18;0.70;;;;;;;7.90;48.79;101177.03;5007629;28;20137;-78
2022/11/03 03:17:49;;;;;;;6.32;0.77;;;;;;;7.84;48.93;101173.72;4994553;28;20132;-79
2022/11/03 03:20:30;;;;;;;7.63;1.23;;;;;;;7.71;48.95;101179.22;4978030;28;20108;-77
2022/11/03 03:23:46;;;;;;;11.40;0.70;;;;;;;7.71;49.16;101181.81;4979008;28;20030;-78
2022/11/03 03:27:12;;;;;;;10.65;1.00;;;;;;;7.63;49.29;101186.34;4986413;28;20046;-78
2022/11/03 03:29:51;;;;;;;9.02;1.27;;;;;;;7.92;48.44;101182.22;4954070;28;20073;-78
2022/11/03 03:33:07;;;;;;;9.77;1.10;;;;;;;7.82;48.21;101181.56;5003155;28;20103;-78
2022/11/03 03:35:35;;;;;;;14.50;3.03;;;;;;;7.44;49.97;101179.78;4980848;28;20034;-79
2022/11/03 03:38:11;;;;;;;6.10;1.13;;;;;;;7.67;49.37;101172.38;4981576;28;20528;-78
2022/11/03 03:40:50;;;;;;;6.75;1.55;;;;;;;7.62;49.20;101174.19;5026278;28;20655;-79
2022/11/03 03:43:25;;;;;;;7.60;0.90;;;;;;;7.78;48.88;101168.66;5006121;28;20136;-78
2022/11/03 03:46:06;;;;;;;5.75;0.95;;;;;;;7.62;49.63;101163.78;4989101;28;20041;-74
2022/11/03 03:48:36;;;;;;;7.55;0.75;;;;;;;7.71;49.07;101158.41;4972280;28;20045;-74
2022/11/03 03:51:03;;;;;;;17.05;2.28;;;;;;;7.81;48.79;101152.97;5006796;28;20160;-71
2022/11/03 03:53:30;;;;;;;10.15;1.15;;;;;;;7.77;48.83;101153.94;5005715;28;20050;-73
2022/11/03 03:56:00;;;;;;;10.38;0.98;;;;;;;7.61;49.49;101151.69;5005089;28;21364;-74
2022/11/03 03:58:26;;;;;;;5.95;0.70;;;;;;;7.77;49.12;101151.34;5006669;28;20635;-74
2022/11/03 04:00:52;;;;;;;4.15;1.10;;;;;;;7.74;49.15;101145.31;4988346;28;20033;-74
2022/11/03 04:03:22;;;;;;;8.35;0.65;;;;;;;7.64;49.21;101146.41;4987864;28;20257;-74
2022/11/03 04:05:57;;;;;;;11.70;1.35;;;;;;;7.52;49.69;101142.31;4987324;28;20397;-75
2022/11/03 04:08:22;;;;;;;8.30;0.38;;;;;;;7.73;49.01;101140.13;5004933;28;20454;-75
2022/11/03 04:24:32;;;;;;;9.07;1.27;;;;;;;7.86;48.85;101130.28;4994170;28;20635;-72
2022/11/03 04:27:04;;;;;;;7.53;0.88;;;;;;;7.61;49.67;101130.03;5006076;28;20029;-72
2022/11/03 04:29:30;;;;;;;3.17;0.90;;;;;;;7.78;49.19;101127.00;5006395;28;20050;-72
2022/11/03 04:31:56;;;;;;;8.75;0.70;;;;;;;7.61;49.82;101123.09;5005248;28;20037;-71
2022/11/03 04:34:23;;;;;;;14.32;0.60;;;;;;;7.93;48.86;101111.88;5004000;28;20053;-71
2022/11/03 04:36:49;;;;;;;8.13;0.70;;;;;;;7.72;49.28;101118.47;5004973;28;20032;-71
2022/11/03 04:39:18;;;;;;;11.07;1.67;;;;;;;7.77;48.95;101115.75;5005749;28;20105;-72
2022/11/03 04:41:45;;;;;;;2.75;0.63;;;;;;;7.59;49.67;101114.44;5019722;28;20038;-74
2022/11/03 04:44:14;;;;;;;6.53;0.98;;;;;;;7.82;48.80;101113.88;4991100;28;20096;-73
2022/11/03 04:46:42;;;;;;;4.15;1.00;;;;;;;7.82;48.99;101108.69;5004974;28;20038;-74
2022/11/03 04:49:20;;;;;;;6.22;1.30;;;;;;;7.53;49.81;101099.84;4988064;28;20049;-74
2022/11/03 04:51:47;;;;;;;5.07;0.40;;;;;;;7.77;49.34;101104.50;5007008;28;20065;-71
2022/11/03 04:54:17;;;;;;;7.88;1.10;;;;;;;7.56;49.60;101101.53;4987773;28;20099;-72
2022/11/03 04:56:46;;;;;;;7.88;0.52;;;;;;;7.71;49.44;101090.75;5003684;28;20452;-73
2022/11/03 04:59:14;;;;;;;10.20;1.00;;;;;;;7.71;49.59;101084.69;5006265;28;20061;-74
2022/11/03 05:01:42;;;;;;;8.25;0.55;;;;;;;7.50;49.82;101086.88;5009651;28;20042;-72
2022/11/03 05:04:16;;;;;;;5.53;0.70;;;;;;;7.62;49.71;101085.75;4992093;28;20037;-73
2022/11/03 05:06:52;;;;;;;5.55;0.65;;;;;;;7.31;50.22;101085.59;5009327;28;20025;-74
2022/11/03 05:09:28;;;;;;;8.65;0.70;;;;;;;7.76;49.24;101068.94;5006406;28;20042;-74
2022/11/03 05:11:53;;;;;;;5.20;0.52;;;;;;;7.59;49.87;101067.63;5007996;28;20103;-73
2022/11/03 05:14:23;;;;;;;10.50;1.10;;;;;;;7.74;49.28;101064.66;5006307;28;20073;-73
2022/11/03 05:16:53;;;;;;;4.82;0.30;;;;;;;7.51;50.08;101051.31;4989200;28;20041;-74
2022/11/03 05:19:30;;;;;;;8.15;0.85;;;;;;;7.49;49.81;101063.53;5007548;28;20500;-74
2022/11/03 05:21:59;;;;;;;3.35;0.40;;;;;;;7.64;49.62;101063.16;5005416;28;20041;-73
2022/11/03 05:24:26;;;;;;;6.88;0.60;;;;;;;7.67;49.48;101065.72;5008778;28;20037;-74
2022/11/03 05:26:57;;;;;;;2.75;0.60;;;;;;;7.28;50.46;101060.53;4990263;28;20041;-74
2022/11/03 05:29:35;;;;;;;5.35;1.10;;;;;;;7.72;49.31;101050.81;5009832;28;20415;-73
2022/11/03 05:32:01;;;;;;;8.00;1.55;;;;;;;7.64;49.79;101047.56;5007933;28;20085;-73
2022/11/03 05:34:33;;;;;;;4.07;0.90;;;;;;;7.71;49.27;101046.53;5008339;28;20483;-73
2022/11/03 05:37:32;;;;;;;4.03;1.83;;;;;;;7.64;49.54;101044.09;4989805;28;20538;-76
2022/11/03 05:40:09;;;;;;;2.65;0.50;;;;;;;7.42;50.44;101042.03;5001125;28;20042;-74
2022/11/03 05:42:38;;;;;;;5.25;0.73;;;;;;;7.69;49.64;101050.91;5009216;28;20045;-75
2022/11/03 05:45:26;;;;;;;10.88;0.85;;;;;;;7.68;49.50;101038.78;5010108;28;20041;-75
2022/11/03 05:47:54;;;;;;;3.08;0.50;;;;;;;7.60;49.63;101030.34;5005031;28;20044;-74
2022/11/03 05:51:04;;;;;;;6.47;0.75;;;;;;;7.45;50.18;101031.53;4992801;28;20033;-78
2022/11/03 05:53:42;;;;;;;11.38;0.60;;;;;;;7.13;51.00;101024.47;4998998;28;20046;-74
2022/11/03 05:56:14;;;;;;;5.80;1.40;;;;;;;7.61;50.03;101026.84;5010316;28;20037;-75
2022/11/03 05:58:42;;;;;;;3.83;1.20;;;;;;;7.65;49.76;101027.63;5005346;28;20053;-74
2022/11/03 06:01:35;;;;;;;10.23;0.40;;;;;;;7.70;49.80;101024.00;4994542;28;20391;-74
2022/11/03 06:04:39;;;;;;;8.48;0.93;;;;;;;7.20;51.02;101026.06;4996415;28;20391;-74
2022/11/03 06:07:23;;;;;;;5.90;1.15;;;;;;;7.40;50.67;101017.78;5008309;28;20030;-74
2022/11/03 06:09:50;;;;;;;8.02;0.77;;;;;;;7.24;50.65;101014.69;5008897;28;20041;-73
2022/11/03 06:12:19;;;;;;;4.68;1.85;;;;;;;7.61;50.08;101008.63;5007159;28;20042;-74
2022/11/03 06:14:45;;;;;;;3.45;0.45;;;;;;;7.59;50.26;101012.16;5008207;28;20033;-73
2022/11/03 06:17:22;;;;;;;1.70;0.30;;;;;;;7.43;50.44;101006.47;5006579;28;20533;-74
2022/11/03 06:19:52;;;;;;;5.38;0.75;;;;;;;7.67;49.86;101016.28;4990590;28;20038;-73
2022/11/03 06:22:26;;;;;;;3.28;0.60;;;;;;;7.41;50.68;101005.63;5008237;28;20037;-73
2022/11/03 06:24:58;;;;;;;5.90;0.88;;;;;;;7.60;50.12;100993.03;5007684;28;20505;-75
2022/11/03 06:27:25;;;;;;;;;;;;;;;7.47;50.38;100992.50;5007659;28;20048;-73
2022/11/03 06:30:13;;;;;;;4.25;1.05;;;;;;;7.57;50.56;100988.78;4977826;28;19921;-72
2022/11/03 06:32:39;;;;;;;5.22;0.77;;;;;;;7.66;49.97;100993.75;4975864;28;20041;-73
2022/11/03 06:35:10;;;;;;;5.85;0.60;;;;;;;7.66;50.25;100992.88;5007601;28;20134;-72
2022/11/03 06:37:36;;;;;;;5.88;0.60;;;;;;;7.45;50.45;100989.91;4990759;28;20060;-72
2022/11/03 06:40:23;;;;;;;4.05;0.88;;;;;;;7.65;50.28;100994.66;5011393;28;20462;-74
2022/11/03 06:42:51;;;;;;;5.05;1.00;;;;;;;7.48;50.57;100986.38;5006695;28;20470;-74
2022/11/03 06:45:21;;;;;;;6.35;0.77;;;;;;;7.82;49.67;100988.13;4989059;28;20041;-74
2022/11/03 06:47:48;;;;;;;6.65;0.80;;;;;;;7.70;50.06;100973.72;5006643;28;20045;-74
2022/11/03 06:50:26;;;;;;;3.13;0.75;;;;;;;7.75;49.79;100974.44;5008069;28;20487;-74
2022/11/03 06:52:52;;;;;;;8.98;0.68;;;;;;;7.75;49.88;100992.66;4991349;28;20042;-74
2022/11/03 06:55:18;;;;;;;3.08;0.38;;;;;;;7.68;50.38;100988.50;5005447;28;20570;-75
2022/11/03 06:57:45;;;;;;;6.88;0.45;;;;;;;7.74;50.12;100986.59;4985899;28;20124;-75
2022/11/03 07:00:21;;;;;;;4.78;1.17;;;;;;;7.93;49.80;100992.16;4992826;28;20030;-75
2022/11/03 07:02:56;;;;;;;6.15;0.60;;;;;;;8.06;49.27;100997.88;5003995;28;20570;-77
2022/11/03 07:05:27;;;;;;;4.75;0.82;;;;;;;8.07;49.63;100994.41;4988490;28;20051;-74
2022/11/03 07:07:59;;;;;;;8.10;0.65;;;;;;;7.79;50.12;100977.81;4986610;28;20056;-71
2022/11/03 07:10:27;;;;;;;3.58;0.55;;;;;;;8.03;49.77;100971.09;5002586;28;20033;-74
2022/11/03 07:12:54;;;;;;;6.55;0.52;;;;;;;8.22;49.19;100963.59;5004902;28;20042;-74
2022/11/03 07:15:29;;;;;;;5.15;0.63;;;;;;;8.27;49.13;100964.31;5004890;28;20883;-76
2022/11/03 07:17:56;;;;;;;5.03;0.40;;;;;;;8.35;48.82;100958.00;4987240;28;20049;-75
2022/11/03 07:20:21;;;;;;;4.78;0.95;;;;;;;8.40;48.90;100950.03;4987940;28;20037;-75
2022/11/03 07:22:48;;;;;;;4.47;0.85;;;;;;;8.57;48.35;100942.59;4983952;28;20095;-75
2022/11/03 07:25:19;;;;;;;8.88;0.47;;;;;;;8.36;49.13;100953.66;4989906;28;20026;-74
2022/11/03 07:27:49;;;;;;;7.78;0.70;;;;;;;8.52;48.79;100948.84;5005009;28;20049;-70
2022/11/03 07:30:37;;;;;;;2.40;0.40;;;;;;;8.27;49.18;100948.69;4989900;28;20110;-76
2022/11/03 07:33:25;;;;;;;7.10;1.13;;;;;;;8.44;49.43;100943.00;4993085;28;20033;-78
2022/11/03 07:39:26;;;;;;;7.93;0.93;;;;;;;9.07;47.63;100941.91;4993689;28;20077;-73
2022/11/03 07:41:58;;;;;;;3.03;0.70;;;;;;;9.17;47.10;100953.75;4982753;28;20120;-75
2022/11/03 07:44:33;;;;;;;6.22;1.02;;;;;;;9.03;47.61;100950.75;4985207;28;20046;-74
2022/11/03 07:47:28;;;;;;;11.30;1.27;;;;;;;9.48;46.89;100951.91;5005070;28;20121;-75
2022/11/03 07:50:14;;;;;;;7.32;0.70;;;;;;;8.97;47.88;100945.75;4991329;28;20704;-72
2022/11/03 07:52:46;;;;;;;3.35;0.82;;;;;;;9.70;46.58;100951.97;4990579;28;20164;-75
2022/11/03 07:55:12;;;;;;;;;;;;;;;9.83;46.32;100936.78;4987607;28;20034;-74
2022/11/03 07:58:24;;;;;;;4.95;1.02;;;;;;;10.01;45.18;100933.50;5002062;28;19937;-75
2022/11/03 08:00:56;;;;;;;3.63;0.50;;;;;;;10.42;45.12;100931.94;4980233;28;20049;-75
2022/11/03 08:03:26;;;;;;;;;;;;;;;10.57;44.27;100934.88;5007083;28;20041;-75
2022/11/03 08:05:57;;;;;;;11.85;1.33;;;;;;;10.53;44.24;100923.69;5020883;28;19913;-74
2022/11/03 08:08:22;;;;;;;9.68;0.88;;;;;;;10.27;44.92;100929.91;5007480;28;20629;-75
2022/11/03 08:10:51;;;;;;;9.77;1.88;;;;;;;10.55;44.75;100924.50;5004152;28;20037;-74
2022/11/03 08:13:17;;;;;;;9.63;1.58;;;;;;;10.55;44.50;100921.03;5003693;28;20537;-75
2022/11/03 08:15:45;;;;;;;10.30;1.58;;;;;;;10.24;45.24;100916.13;5006751;28;20025;-75
2022/11/03 08:18:21;;;;;;;7.47;0.65;;;;;;;9.88;46.52;100919.19;4992299;28;20167;-75
2022/11/03 08:20:47;;;;;;;7.55;1.90;;;;;;;10.06;45.76;100910.69;5003362;28;20068;-74
2022/11/03 08:23:25;;;;;;;5.95;0.80;;;;;;;10.31;44.96;100908.00;5004224;28;20042;-76
2022/11/03 08:25:51;;;;;;;7.65;0.75;;;;;;;10.21;45.20;100907.50;4990065;28;20062;-76
2022/11/03 08:28:16;;;;;;;2.53;0.30;;;;;;;10.42;45.13;100902.38;5004783;28;20117;-75
2022/11/03 08:30:45;;;;;;;10.40;1.02;;;;;;;10.40;45.33;100901.56;5020725;28;20057;-74
2022/11/03 08:33:10;;;;;;;4.22;0.68;;;;;;;10.33;45.39;100902.72;4988595;28;20054;-75
2022/11/03 08:35:36;;;;;;;7.55;1.05;;;;;;;10.11;46.31;100895.69;5006890;28;20095;-74
2022/11/03 08:38:01;;;;;;;7.78;1.58;;;;;;;9.76;47.05;100895.19;4991209;28;20161;-76
2022/11/03 08:40:30;;;;;;;4.78;1.00;;;;;;;9.94;46.54;100890.25;4994280;28;20053;-76
2022/11/03 08:42:56;;;;;;;12.18;4.50;;;;;;;9.92;46.58;100890.31;4991625;28;20108;-77
2022/11/03 08:45:54;;;;;;;11.50;3.22;;;;;;;10.28;45.93;100881.13;5011439;28;20203;-75
2022/11/03 08:48:26;;;;;;;10.10;1.42;;;;;;;10.30;45.66;100890.59;4980837;28;20561;-74
2022/11/03 08:51:03;;;;;;;10.85;3.25;;;;;;;10.09;46.18;100879.22;5005705;28;20061;-74
2022/11/03 08:53:29;;;;;;;6.45;1.02;;;;;;;10.38;45.93;100872.03;4989737;28;20439;-75
2022/11/03 08:55:55;;;;;;;5.15;0.98;;;;;;;10.43;46.11;100870.94;4951325;28;20115;-75
2022/11/03 08:58:33;;;;;;;4.85;0.68;;;;;;;10.35;45.98;100866.94;4993211;28;20045;-76
2022/11/03 09:00:59;;;;;;;5.70;0.88;;;;;;;10.52;45.92;100869.72;4991307;28;20506;-76
2022/11/03 09:03:31;;;;;;;12.68;1.20;;;;;;;10.47;46.50;100856.00;5004937;28;20076;-76
2022/11/03 09:06:16;;;;;;;6.43;0.88;;;;;;;10.40;46.46;100863.22;5007648;28;20555;-75
2022/11/03 09:08:49;;;;;;;7.30;0.60;;;;;;;10.47;46.47;100858.59;5003395;28;20052;-74
2022/11/03 09:11:20;;;;;;;6.78;0.75;;;;;;;10.80;45.95;100850.31;5009164;28;20050;-74
2022/11/03 09:13:49;;;;;;;6.63;0.70;;;;;;;10.98;45.18;100852.19;5003050;28;20057;-75
2022/11/03 09:16:20;;;;;;;2.35;0.47;;;;;;;11.12;45.21;100848.97;4991785;28;20045;-75
2022/11/03 09:18:51;;;;;;;5.45;0.63;;;;;;;11.49;44.28;100841.31;5003560;28;23388;-75
2022/11/03 09:21:24;;;;;;;9.43;0.73;;;;;;;12.34;43.90;100851.41;4990039;28;20661;-75
2022/11/03 09:24:02;;;;;;;;;;;;;;;;;;;;;
2022/11/03 09:26:53;;;;;;;4.72;1.10;;;;;;;12.77;41.81;100839.69;5005070;28;20257;-75
2022/11/03 09:30:31;;;;;;;5.57;0.75;;;;;;;12.83;41.51;100835.94;5005554;28;20045;-75
2022/11/03 09:33:33;;;;;;;5.13;1.70;;;;;;;12.93;41.80;100842.38;5008359;28;20052;-74
2022/11/03 09:40:26;;;;;;;9.98;0.93;;;;;;;12.58;42.66;100828.38;4986255;28;20033;-75
2022/11/03 09:43:50;;;;;;;7.28;1.33;;;;;;;12.60;42.92;100832.66;4981156;28;20046;-75
2022/11/03 09:46:19;;;;;;;9.30;0.80;;;;;;;12.51;42.99;100822.59;4902883;29;20053;-74
2022/11/03 09:49:01;;;;;;;5.80;0.90;;;;;;;12.25;43.64;100827.31;4952862;28;20270;-75
2022/11/03 09:51:27;;;;;;;4.00;0.63;;;;;;;12.21;43.79;100828.38;4964952;28;20192;-75
2022/11/03 09:54:04;;;;;;;10.60;0.70;;;;;;;12.10;44.20;100828.06;5003868;28;20042;-76
2022/11/03 09:56:58;;;;;;;5.40;0.60;;;;;;;12.00;44.18;100816.28;5004023;28;20057;-75
2022/11/03 09:59:50;;;;;;;7.97;0.60;;;;;;;12.30;43.96;100819.25;5004987;28;20095;-75
2022/11/03 10:02:42;;;;;;;5.28;0.85;;;;;;;12.16;44.11;100813.84;4995632;28;20033;-75
2022/11/03 10:06:05;;;;;;;9.15;0.68;;;;;;;12.32;44.88;100811.31;5009416;28;20594;-75
2022/11/03 10:09:22;;;;;;;10.57;1.00;;;;;;;12.57;43.68;100801.31;4991630;28;20077;-75
2022/11/03 10:11:46;;;;;;;13.57;2.35;;;;;;;12.68;43.02;100796.38;5009954;28;20084;-75
2022/11/03 10:14:22;;;;;;;6.90;1.10;;;;;;;12.37;43.74;100796.22;5008569;28;20494;-76
2022/11/03 10:16:56;;;;;;;8.07;1.40;;;;;;;12.57;43.26;100793.44;5006514;28;20415;-75
2022/11/03 10:19:51;;;;;;;6.70;1.30;;;;;;;12.30;44.12;100790.41;4989289;28;20038;-75
2022/11/03 10:22:19;;;;;;;9.20;0.85;;;;;;;11.85;45.45;100787.28;4977686;28;20041;-74
2022/11/03 10:25:26;;;;;;;6.82;0.73;;;;;;;12.46;44.28;100785.28;5007359;28;20045;-74
2022/11/03 10:28:09;;;;;;;7.32;0.95;;;;;;;12.29;44.43;100784.34;4989633;28;20133;-76
2022/11/03 10:30:51;;;;;;;4.82;0.70;;;;;;;12.21;44.75;100783.84;5009158;28;20120;-73
2022/11/03 10:33:28;;;;;;;8.40;0.77;;;;;;;12.21;44.54;100778.59;4996144;28;20099;-75
2022/11/03 10:36:05;;;;;;;11.80;1.45;;;;;;;12.11;44.67;100769.50;4990987;28;20037;-74
2022/11/03 10:38:37;;;;;;;3.50;0.60;;;;;;;12.21;44.64;100769.91;5003408;28;20061;-76
2022/11/03 10:41:16;;;;;;;3.55;0.57;;;;;;;12.42;44.82;100762.75;4994501;28;20045;-74
2022/11/03 10:44:09;;;;;;;4.13;0.75;;;;;;;12.31;44.66;100759.81;5005152;28;20120;-77
2022/11/03 10:46:38;;;;;;;7.28;1.40;;;;;;;12.28;44.73;100748.56;5007085;28;20045;-77
2022/11/03 10:49:12;;;;;;;5.35;0.63;;;;;;;12.44;44.22;100753.03;4990675;28;20056;-75
2022/11/03 10:51:39;;;;;;;5.82;0.57;;;;;;;12.46;44.30;100748.56;4988145;28;20478;-77
2022/11/03 10:54:25;;;;;;;7.40;0.90;;;;;;;12.73;43.94;100748.13;4955183;28;20069;-77
2022/11/03 10:56:51;;;;;;;4.20;0.45;;;;;;;12.67;43.73;100749.28;5006953;28;20056;-76
2022/11/03 10:59:32;;;;;;;4.07;0.60;;;;;;;12.88;43.76;100735.06;4991207;28;20133;-71
2022/11/03 11:01:59;;;;;;;5.60;0.55;;;;;;;13.51;42.88;100741.38;5008218;28;20041;-75
2022/11/03 11:04:25;;;;;;;7.68;0.77;;;;;;;14.32;41.22;100731.59;4990751;28;20050;-73
2022/11/03 11:06:51;;;;;;;3.33;0.30;;;;;;;14.24;41.21;100715.41;4989565;28;20029;-73
2022/11/03 11:09:25;;;;;;;5.25;0.93;;;;;;;13.88;40.70;100719.22;4973161;28;20694;-72
2022/11/03 11:12:05;;;;;;;6.53;0.55;;;;;;;14.22;40.61;100714.66;5005047;28;20033;-73
2022/11/03 11:14:37;;;;;;;5.55;1.48;;;;;;;14.32;40.30;100705.31;5004607;28;20052;-76
2022/11/03 11:17:05;;;;;;;6.88;1.02;;;;;;;14.14;41.04;100712.47;4989622;28;20119;-72
2022/11/03 11:20:22;;;;;;;4.50;0.65;;;;;;;14.02;41.00;100704.44;4991028;28;20038;-74
2022/11/03 11:22:50;;;;;;;8.00;1.02;;;;;;;13.18;42.46;100707.31;4996926;28;20072;-74
2022/11/03 11:25:19;;;;;;;7.07;0.90;;;;;;;13.34;42.53;100695.06;5007827;28;20092;-74
2022/11/03 11:27:44;;;;;;;7.70;0.93;;;;;;;13.21;42.91;100697.50;5006519;28;20048;-72
2022/11/03 11:30:19;;;;;;;6.18;0.65;;;;;;;13.46;42.28;100690.91;5006975;28;20469;-74
2022/11/03 11:32:44;;;;;;;5.53;0.85;;;;;;;13.07;42.68;100685.13;5007505;28;20080;-73
2022/11/03 11:35:25;;;;;;;6.07;0.65;;;;;;;13.37;42.27;100678.28;5007471;28;20149;-76
2022/11/03 11:37:51;;;;;;;7.65;0.75;;;;;;;13.35;42.12;100678.38;5003649;28;20041;-73
2022/11/03 11:40:51;;;;;;;7.22;0.88;;;;;;;13.26;42.19;100671.00;5006622;28;20041;-71
2022/11/03 11:43:25;;;;;;;7.88;0.70;;;;;;;13.36;42.17;100653.84;4987850;28;20045;-73
2022/11/03 11:46:21;;;;;;;7.18;0.43;;;;;;;13.48;42.18;100655.75;5006239;28;20522;-77
2022/11/03 11:49:12;;;;;;;5.43;0.60;;;;;;;13.04;42.60;100651.16;4965986;28;20040;-74
2022/11/03 11:55:45;;;;;;;4.55;0.80;;;;;;;13.35;42.06;100633.75;4982639;28;20056;-75
2022/11/03 11:58:22;;;;;;;8.57;0.93;;;;;;;13.09;42.54;100625.53;4987746;28;20052;-72
2022/11/03 12:01:04;;;;;;;9.52;1.52;;;;;;;13.16;42.31;100630.44;4985928;28;20587;-74
2022/11/03 12:03:41;;;;;;;4.72;0.47;;;;;;;12.35;43.48;100617.22;5005194;28;20033;-76
2022/11/03 12:06:11;;;;;;;12.32;1.27;;;;;;;13.20;41.99;100616.22;5003055;28;20056;-74
2022/11/03 12:08:39;;;;;;;3.20;0.43;;;;;;;13.28;42.29;100609.63;5004526;28;20042;-74
2022/11/03 12:11:10;;;;;;;3.15;0.70;;;;;;;13.44;42.16;100604.34;5023393;28;20069;-75
2022/11/03 12:13:52;;;;;;;4.72;0.57;;;;;;;13.75;41.36;100602.66;5009581;28;20437;-75
2022/11/03 12:16:35;;;;;;;4.80;0.60;;;;;;;13.62;41.03;100596.41;5026026;28;20771;-74
2022/11/03 12:22:40;;;;;;;3.20;0.40;;;;;;;13.24;41.84;100578.38;4996900;28;20041;-74
2022/11/03 12:25:34;;;;;;;12.23;0.67;;;;;;;13.12;41.79;100566.81;5010075;28;20022;-74
2022/11/03 12:28:02;;;;;;;5.63;0.63;;;;;;;12.98;42.53;100575.44;5007908;28;20600;-76
2022/11/03 12:30:28;;;;;;;7.30;0.82;;;;;;;13.00;42.13;100565.69;4992503;28;20080;-73
2022/11/03 12:33:15;;;;;;;3.25;1.20;;;;;;;13.27;41.46;100563.31;5010405;28;20535;-75
2022/11/03 12:36:43;;;;;;;;;;;;;;;;;;;;;
2022/11/03 12:39:35;;;;;;;4.32;0.63;;;;;;;13.01;41.77;100559.53;5007779;28;20050;-73
2022/11/03 12:42:00;;;;;;;4.90;1.45;;;;;;;12.96;42.25;100558.06;5008740;28;20038;-76